Maldives Meteorological Service

TAFS

Station TAF
VRMM
VRMM 210500Z 2106/2212 14007KT 9999 FEW018 TEMPO 2106/2112 FEW019CB=
VRMH
VRMH 210500Z 2106/2212 10007KT 9999 FEW018 TEMPO 2106/2112 4000 TSRA FEW017CB=
VRMK
VRMK 210500Z 2106/2206 13006KT 9999 FEW018 TEMPO 2109/2115 5000 -SHRA FEW018CB=
VRMT
VRMT 210500Z 2106/2206 12006KT 9999 FEW018 TEMPO 2106/2112 4000 TSRA FEW017CB=
VRMG
VRMG 210500Z 2106/2212 13013KT 9999 FEW018 TEMPO 2106/2112 4000 TSRA FEW017CB=